sensor_id;sensor_type;location;lat;lon;timestamp;pressure;altitude;pressure_sealevel;temperature;humidity
6094;BME280;19964;42.060;24.700;2022-10-19T00:00:41;98112.19;;;8.22;72.22
6094;BME280;19964;42.060;24.700;2022-10-19T00:03:08;98112.16;;;8.09;72.52
6094;BME280;19964;42.060;24.700;2022-10-19T00:05:35;98101.00;;;8.02;72.80
6094;BME280;19964;42.060;24.700;2022-10-19T00:08:02;98105.09;;;7.90;73.18
6094;BME280;19964;42.060;24.700;2022-10-19T00:10:28;98106.19;;;8.08;72.96
6094;BME280;19964;42.060;24.700;2022-10-19T00:12:58;98112.34;;;8.14;72.73
6094;BME280;19964;42.060;24.700;2022-10-19T00:15:25;98051.59;;;7.51;73.75
6094;BME280;19964;42.060;24.700;2022-10-19T00:17:52;98102.72;;;7.88;74.06
6094;BME280;19964;42.060;24.700;2022-10-19T00:20:19;98103.38;;;7.97;73.67
6094;BME280;19964;42.060;24.700;2022-10-19T00:22:48;98096.59;;;7.96;74.04
6094;BME280;19964;42.060;24.700;2022-10-19T00:25:15;98095.00;;;7.88;73.99
6094;BME280;19964;42.060;24.700;2022-10-19T00:27:42;98095.09;;;7.67;74.71
6094;BME280;19964;42.060;24.700;2022-10-19T00:30:10;98085.84;;;7.79;74.15
6094;BME280;19964;42.060;24.700;2022-10-19T00:32:37;98083.63;;;7.76;74.70
6094;BME280;19964;42.060;24.700;2022-10-19T00:35:04;98082.66;;;7.77;74.14
6094;BME280;19964;42.060;24.700;2022-10-19T00:37:31;98078.06;;;7.73;74.15
6094;BME280;19964;42.060;24.700;2022-10-19T00:39:58;98080.06;;;7.37;75.91
6094;BME280;19964;42.060;24.700;2022-10-19T00:42:25;98074.72;;;7.38;76.10
6094;BME280;19964;42.060;24.700;2022-10-19T00:45:06;98062.59;;;7.32;76.18
6094;BME280;19964;42.060;24.700;2022-10-19T00:47:34;98072.75;;;7.40;75.99
6094;BME280;19964;42.060;24.700;2022-10-19T00:50:02;98067.66;;;7.53;75.36
6094;BME280;19964;42.060;24.700;2022-10-19T00:52:29;98067.81;;;7.45;75.67
6094;BME280;19964;42.060;24.700;2022-10-19T00:54:56;98062.63;;;7.39;75.56
6094;BME280;19964;42.060;24.700;2022-10-19T00:57:26;98052.81;;;7.21;75.77
6094;BME280;19964;42.060;24.700;2022-10-19T00:59:54;98050.28;;;7.28;75.77
6094;BME280;19964;42.060;24.700;2022-10-19T01:02:21;98041.31;;;7.17;76.39
6094;BME280;19964;42.060;24.700;2022-10-19T01:04:50;98041.75;;;6.93;76.94
6094;BME280;19964;42.060;24.700;2022-10-19T01:07:19;98042.16;;;6.96;77.20
6094;BME280;19964;42.060;24.700;2022-10-19T01:09:46;98038.22;;;7.00;77.33
6094;BME280;19964;42.060;24.700;2022-10-19T01:12:23;98028.63;;;6.88;77.54
6094;BME280;19964;42.060;24.700;2022-10-19T01:15:01;98020.72;;;6.62;78.26
6094;BME280;19964;42.060;24.700;2022-10-19T01:17:40;98022.44;;;6.55;79.37
6094;BME280;19964;42.060;24.700;2022-10-19T01:20:32;97959.16;;;6.11;79.54
6094;BME280;19964;42.060;24.700;2022-10-19T01:23:17;98016.09;;;6.51;80.12
6094;BME280;19964;42.060;24.700;2022-10-19T01:25:53;98017.91;;;6.57;79.90
6094;BME280;19964;42.060;24.700;2022-10-19T01:28:35;98010.75;;;6.52;80.21
6094;BME280;19964;42.060;24.700;2022-10-19T01:31:16;98014.03;;;6.40;80.67
6094;BME280;19964;42.060;24.700;2022-10-19T01:33:51;98015.59;;;6.41;80.31
6094;BME280;19964;42.060;24.700;2022-10-19T01:36:26;98014.72;;;6.55;79.41
6094;BME280;19964;42.060;24.700;2022-10-19T01:39:00;97984.81;;;6.54;79.41
6094;BME280;19964;42.060;24.700;2022-10-19T01:41:32;98003.13;;;6.65;79.04
6094;BME280;19964;42.060;24.700;2022-10-19T01:44:10;97998.28;;;6.56;79.78
6094;BME280;19964;42.060;24.700;2022-10-19T01:46:42;97999.22;;;6.48;78.62
6094;BME280;19964;42.060;24.700;2022-10-19T01:49:13;98002.22;;;6.79;76.89
6094;BME280;19964;42.060;24.700;2022-10-19T01:51:44;97995.91;;;6.82;76.42
6094;BME280;19964;42.060;24.700;2022-10-19T01:54:14;97998.09;;;6.85;75.94
6094;BME280;19964;42.060;24.700;2022-10-19T01:56:44;97996.38;;;6.92;75.41
6094;BME280;19964;42.060;24.700;2022-10-19T01:59:14;98001.00;;;7.03;74.29
6094;BME280;19964;42.060;24.700;2022-10-19T02:01:46;97997.06;;;7.07;73.51
6094;BME280;19964;42.060;24.700;2022-10-19T02:04:18;97993.16;;;7.17;71.64
6094;BME280;19964;42.060;24.700;2022-10-19T02:06:46;97989.38;;;7.13;72.66
6094;BME280;19964;42.060;24.700;2022-10-19T02:09:12;97985.13;;;6.99;73.10
6094;BME280;19964;42.060;24.700;2022-10-19T02:11:44;97979.03;;;7.07;72.39
6094;BME280;19964;42.060;24.700;2022-10-19T02:14:14;97976.84;;;7.04;72.29
6094;BME280;19964;42.060;24.700;2022-10-19T02:16:46;97973.31;;;7.11;71.69
6094;BME280;19964;42.060;24.700;2022-10-19T02:19:15;97964.16;;;7.09;71.51
6094;BME280;19964;42.060;24.700;2022-10-19T02:21:43;97965.19;;;7.08;71.24
6094;BME280;19964;42.060;24.700;2022-10-19T02:24:10;97965.03;;;7.22;70.46
6094;BME280;19964;42.060;24.700;2022-10-19T02:26:38;97916.00;;;7.03;68.41
6094;BME280;19964;42.060;24.700;2022-10-19T02:29:05;97958.41;;;7.54;67.81
6094;BME280;19964;42.060;24.700;2022-10-19T02:31:32;97949.16;;;7.26;69.22
6094;BME280;19964;42.060;24.700;2022-10-19T02:34:00;97949.41;;;7.31;70.35
6094;BME280;19964;42.060;24.700;2022-10-19T02:36:27;97947.22;;;7.34;69.76
6094;BME280;19964;42.060;24.700;2022-10-19T02:38:54;97950.81;;;7.33;69.06
6094;BME280;19964;42.060;24.700;2022-10-19T02:41:24;97940.25;;;7.22;71.03
6094;BME280;19964;42.060;24.700;2022-10-19T02:43:55;97960.06;;;7.21;69.99
6094;BME280;19964;42.060;24.700;2022-10-19T02:46:27;97957.97;;;6.97;71.61
6094;BME280;19964;42.060;24.700;2022-10-19T02:48:56;97965.69;;;6.90;71.05
6094;BME280;19964;42.060;24.700;2022-10-19T02:51:33;97957.16;;;6.90;71.78
6094;BME280;19964;42.060;24.700;2022-10-19T02:54:01;97952.22;;;6.61;73.18
6094;BME280;19964;42.060;24.700;2022-10-19T02:56:28;97946.03;;;6.55;74.24
6094;BME280;19964;42.060;24.700;2022-10-19T02:58:55;97942.94;;;6.39;74.33
6094;BME280;19964;42.060;24.700;2022-10-19T03:01:22;97941.72;;;6.35;73.68
6094;BME280;19964;42.060;24.700;2022-10-19T03:03:49;97940.38;;;6.39;73.72
6094;BME280;19964;42.060;24.700;2022-10-19T03:06:16;97876.34;;;5.95;74.20
6094;BME280;19964;42.060;24.700;2022-10-19T03:08:44;97932.78;;;6.30;73.97
6094;BME280;19964;42.060;24.700;2022-10-19T03:11:11;97922.94;;;6.13;73.88
6094;BME280;19964;42.060;24.700;2022-10-19T03:13:38;97933.91;;;6.21;74.37
6094;BME280;19964;42.060;24.700;2022-10-19T03:16:10;97934.53;;;6.23;73.63
6094;BME280;19964;42.060;24.700;2022-10-19T03:18:37;97933.53;;;6.24;72.58
6094;BME280;19964;42.060;24.700;2022-10-19T03:21:06;97935.13;;;6.25;72.30
6094;BME280;19964;42.060;24.700;2022-10-19T03:23:34;97928.81;;;6.28;72.46
6094;BME280;19964;42.060;24.700;2022-10-19T03:26:03;97925.47;;;6.27;72.47
6094;BME280;19964;42.060;24.700;2022-10-19T03:28:30;97925.91;;;6.10;72.09
6094;BME280;19964;42.060;24.700;2022-10-19T03:30:57;97925.72;;;6.11;72.50
6094;BME280;19964;42.060;24.700;2022-10-19T03:33:24;97918.69;;;6.20;71.78
6094;BME280;19964;42.060;24.700;2022-10-19T03:36:14;97921.66;;;6.23;71.52
6094;BME280;19964;42.060;24.700;2022-10-19T03:38:42;97921.66;;;6.23;70.99
6094;BME280;19964;42.060;24.700;2022-10-19T03:41:10;97924.56;;;6.14;70.88
6094;BME280;19964;42.060;24.700;2022-10-19T03:43:37;97921.41;;;6.18;70.76
6094;BME280;19964;42.060;24.700;2022-10-19T03:46:05;97917.25;;;6.17;71.22
6094;BME280;19964;42.060;24.700;2022-10-19T03:48:33;97908.75;;;6.17;70.97
6094;BME280;19964;42.060;24.700;2022-10-19T03:51:02;97884.19;;;6.14;70.51
6094;BME280;19964;42.060;24.700;2022-10-19T03:53:30;97911.97;;;6.25;70.26
6094;BME280;19964;42.060;24.700;2022-10-19T03:56:01;97910.84;;;6.35;70.02
6094;BME280;19964;42.060;24.700;2022-10-19T03:58:30;97897.97;;;6.35;69.41
6094;BME280;19964;42.060;24.700;2022-10-19T04:00:57;97909.31;;;6.40;69.79
6094;BME280;19964;42.060;24.700;2022-10-19T04:03:24;97902.94;;;6.36;69.59
6094;BME280;19964;42.060;24.700;2022-10-19T04:05:51;97910.72;;;6.43;69.05
6094;BME280;19964;42.060;24.700;2022-10-19T04:08:18;97909.63;;;6.58;69.00
6094;BME280;19964;42.060;24.700;2022-10-19T04:10:45;97910.63;;;6.57;69.45
6094;BME280;19964;42.060;24.700;2022-10-19T04:13:11;97884.88;;;6.57;69.23
6094;BME280;19964;42.060;24.700;2022-10-19T04:15:40;97897.97;;;6.62;69.83
6094;BME280;19964;42.060;24.700;2022-10-19T04:18:06;97895.88;;;6.45;70.26
6094;BME280;19964;42.060;24.700;2022-10-19T04:20:33;97906.38;;;6.43;70.11
6094;BME280;19964;42.060;24.700;2022-10-19T04:23:00;97898.22;;;6.40;69.71
6094;BME280;19964;42.060;24.700;2022-10-19T04:25:27;97899.63;;;6.42;69.68
6094;BME280;19964;42.060;24.700;2022-10-19T04:27:54;97888.25;;;6.30;70.08
6094;BME280;19964;42.060;24.700;2022-10-19T04:30:20;97863.59;;;6.14;69.87
6094;BME280;19964;42.060;24.700;2022-10-19T04:32:49;97892.22;;;6.26;70.35
6094;BME280;19964;42.060;24.700;2022-10-19T04:35:15;97887.84;;;6.26;69.93
6094;BME280;19964;42.060;24.700;2022-10-19T04:37:42;97890.53;;;6.18;69.93
6094;BME280;19964;42.060;24.700;2022-10-19T04:40:10;97888.41;;;6.22;69.93
6094;BME280;19964;42.060;24.700;2022-10-19T04:42:37;97888.25;;;6.30;71.54
6094;BME280;19964;42.060;24.700;2022-10-19T04:45:05;97881.09;;;6.53;71.41
6094;BME280;19964;42.060;24.700;2022-10-19T04:47:31;97880.84;;;6.48;69.14
6094;BME280;19964;42.060;24.700;2022-10-19T04:50:00;97875.19;;;6.59;70.55
6094;BME280;19964;42.060;24.700;2022-10-19T04:52:26;97865.66;;;6.53;69.95
6094;BME280;19964;42.060;24.700;2022-10-19T04:54:53;97869.50;;;6.77;71.32
6094;BME280;19964;42.060;24.700;2022-10-19T04:57:20;97864.56;;;6.75;70.19
6094;BME280;19964;42.060;24.700;2022-10-19T04:59:47;97868.69;;;6.70;68.05
6094;BME280;19964;42.060;24.700;2022-10-19T05:02:13;97865.38;;;6.76;67.25
6094;BME280;19964;42.060;24.700;2022-10-19T05:04:40;97876.25;;;6.78;66.93
6094;BME280;19964;42.060;24.700;2022-10-19T05:07:08;97869.72;;;6.75;66.81
6094;BME280;19964;42.060;24.700;2022-10-19T05:09:35;97878.03;;;6.71;67.08
6094;BME280;19964;42.060;24.700;2022-10-19T05:12:04;97878.31;;;6.95;66.95
6094;BME280;19964;42.060;24.700;2022-10-19T05:14:32;97869.78;;;7.75;64.55
6094;BME280;19964;42.060;24.700;2022-10-19T05:16:58;97874.44;;;8.82;60.75
6094;BME280;19964;42.060;24.700;2022-10-19T05:19:25;97864.09;;;9.64;58.25
6094;BME280;19964;42.060;24.700;2022-10-19T05:21:52;97875.88;;;10.59;54.86
6094;BME280;19964;42.060;24.700;2022-10-19T05:24:20;97885.09;;;11.39;53.26
6094;BME280;19964;42.060;24.700;2022-10-19T05:26:47;97862.78;;;11.91;51.85
6094;BME280;19964;42.060;24.700;2022-10-19T05:29:14;97883.25;;;12.22;50.34
6094;BME280;19964;42.060;24.700;2022-10-19T05:31:41;97884.72;;;12.29;48.94
6094;BME280;19964;42.060;24.700;2022-10-19T05:34:08;97874.53;;;12.63;47.64
6094;BME280;19964;42.060;24.700;2022-10-19T05:36:37;97879.03;;;12.90;47.25
6094;BME280;19964;42.060;24.700;2022-10-19T05:39:06;97880.50;;;13.37;47.19
6094;BME280;19964;42.060;24.700;2022-10-19T05:41:35;97881.66;;;13.30;47.35
6094;BME280;19964;42.060;24.700;2022-10-19T05:44:03;97888.16;;;14.05;46.34
6094;BME280;19964;42.060;24.700;2022-10-19T05:46:31;97887.47;;;14.10;46.36
6094;BME280;19964;42.060;24.700;2022-10-19T05:48:59;97882.25;;;14.43;45.39
6094;BME280;19964;42.060;24.700;2022-10-19T05:51:26;97889.47;;;14.96;44.56
6094;BME280;19964;42.060;24.700;2022-10-19T05:53:54;97881.22;;;15.04;44.25
6094;BME280;19964;42.060;24.700;2022-10-19T05:56:22;97886.41;;;15.47;43.30
6094;BME280;19964;42.060;24.700;2022-10-19T05:58:51;97888.69;;;15.65;42.83
6094;BME280;19964;42.060;24.700;2022-10-19T06:01:18;97879.50;;;15.36;42.61
6094;BME280;19964;42.060;24.700;2022-10-19T06:03:46;97867.66;;;15.29;43.35
6094;BME280;19964;42.060;24.700;2022-10-19T06:06:13;97863.53;;;15.33;42.85
6094;BME280;19964;42.060;24.700;2022-10-19T06:08:40;97884.88;;;15.78;42.71
6094;BME280;19964;42.060;24.700;2022-10-19T06:11:08;97884.59;;;16.43;41.19
6094;BME280;19964;42.060;24.700;2022-10-19T06:13:36;97890.03;;;17.40;40.26
6094;BME280;19964;42.060;24.700;2022-10-19T06:16:05;97887.25;;;17.97;40.70
6094;BME280;19964;42.060;24.700;2022-10-19T06:18:32;97882.25;;;18.60;38.88
6094;BME280;19964;42.060;24.700;2022-10-19T06:21:00;97882.28;;;18.30;39.24
6094;BME280;19964;42.060;24.700;2022-10-19T06:23:28;97888.22;;;18.91;39.27
6094;BME280;19964;42.060;24.700;2022-10-19T06:25:55;97891.03;;;19.05;38.32
6094;BME280;19964;42.060;24.700;2022-10-19T06:28:21;97890.34;;;18.79;39.03
6094;BME280;19964;42.060;24.700;2022-10-19T06:30:48;97891.78;;;17.09;41.53
6094;BME280;19964;42.060;24.700;2022-10-19T06:33:16;97880.28;;;16.27;43.66
6094;BME280;19964;42.060;24.700;2022-10-19T06:35:43;97889.19;;;16.26;44.41
6094;BME280;19964;42.060;24.700;2022-10-19T06:38:10;97875.59;;;15.60;45.50
6094;BME280;19964;42.060;24.700;2022-10-19T06:40:38;97873.16;;;16.49;44.15
6094;BME280;19964;42.060;24.700;2022-10-19T06:43:05;97861.03;;;16.38;43.56
6094;BME280;19964;42.060;24.700;2022-10-19T06:45:32;97851.78;;;17.39;43.07
6094;BME280;19964;42.060;24.700;2022-10-19T06:47:58;97866.03;;;18.08;42.16
6094;BME280;19964;42.060;24.700;2022-10-19T06:50:27;97868.38;;;18.20;40.75
6094;BME280;19964;42.060;24.700;2022-10-19T06:52:53;97868.38;;;17.95;41.15
6094;BME280;19964;42.060;24.700;2022-10-19T06:55:20;97871.00;;;18.05;40.94
6094;BME280;19964;42.060;24.700;2022-10-19T06:57:47;97864.44;;;16.80;43.73
6094;BME280;19964;42.060;24.700;2022-10-19T07:00:14;97823.66;;;16.42;43.43
6094;BME280;19964;42.060;24.700;2022-10-19T07:02:41;97859.75;;;18.09;41.63
6094;BME280;19964;42.060;24.700;2022-10-19T07:05:09;97856.41;;;18.93;40.90
6094;BME280;19964;42.060;24.700;2022-10-19T07:07:37;97864.78;;;19.05;40.52
6094;BME280;19964;42.060;24.700;2022-10-19T07:10:04;97860.06;;;19.50;40.09
6094;BME280;19964;42.060;24.700;2022-10-19T07:12:31;97866.47;;;18.71;40.05
6094;BME280;19964;42.060;24.700;2022-10-19T07:14:58;97853.47;;;18.00;41.23
6094;BME280;19964;42.060;24.700;2022-10-19T07:17:24;97858.94;;;18.09;41.33
6094;BME280;19964;42.060;24.700;2022-10-19T07:19:51;97863.66;;;17.87;43.15
6094;BME280;19964;42.060;24.700;2022-10-19T07:22:18;97855.28;;;17.90;42.00
6094;BME280;19964;42.060;24.700;2022-10-19T07:24:46;97845.75;;;17.18;43.28
6094;BME280;19964;42.060;24.700;2022-10-19T07:27:13;97855.75;;;16.69;44.41
6094;BME280;19964;42.060;24.700;2022-10-19T07:29:40;97848.31;;;17.13;43.58
6094;BME280;19964;42.060;24.700;2022-10-19T07:32:06;97838.22;;;17.77;42.81
6094;BME280;19964;42.060;24.700;2022-10-19T07:34:33;97848.47;;;17.53;44.02
6094;BME280;19964;42.060;24.700;2022-10-19T07:37:00;97847.16;;;18.21;42.11
6094;BME280;19964;42.060;24.700;2022-10-19T07:39:27;97813.28;;;18.45;41.29
6094;BME280;19964;42.060;24.700;2022-10-19T07:41:55;97851.69;;;18.95;41.04
6094;BME280;19964;42.060;24.700;2022-10-19T07:44:21;97842.75;;;19.49;40.14
6094;BME280;19964;42.060;24.700;2022-10-19T07:46:48;97836.75;;;19.44;41.10
6094;BME280;19964;42.060;24.700;2022-10-19T07:49:16;97841.22;;;18.85;41.48
6094;BME280;19964;42.060;24.700;2022-10-19T07:51:44;97834.94;;;18.86;41.02
6094;BME280;19964;42.060;24.700;2022-10-19T07:54:11;97835.28;;;18.64;41.22
6094;BME280;19964;42.060;24.700;2022-10-19T07:56:38;97833.00;;;17.97;42.92
6094;BME280;19964;42.060;24.700;2022-10-19T07:59:06;97820.06;;;18.51;41.54
6094;BME280;19964;42.060;24.700;2022-10-19T08:01:37;97832.09;;;18.67;40.80
6094;BME280;19964;42.060;24.700;2022-10-19T08:04:05;97829.19;;;18.74;41.07
6094;BME280;19964;42.060;24.700;2022-10-19T08:06:32;97808.66;;;18.86;41.20
6094;BME280;19964;42.060;24.700;2022-10-19T08:08:59;97820.88;;;18.46;40.75
6094;BME280;19964;42.060;24.700;2022-10-19T08:11:28;97809.31;;;18.47;41.32
6094;BME280;19964;42.060;24.700;2022-10-19T08:13:55;97799.91;;;19.00;41.17
6094;BME280;19964;42.060;24.700;2022-10-19T08:16:26;97815.78;;;18.75;40.69
6094;BME280;19964;42.060;24.700;2022-10-19T08:18:58;97815.06;;;19.18;40.35
6094;BME280;19964;42.060;24.700;2022-10-19T08:21:28;97813.88;;;18.96;40.75
6094;BME280;19964;42.060;24.700;2022-10-19T08:23:56;97814.47;;;19.70;39.21
6094;BME280;19964;42.060;24.700;2022-10-19T08:26:23;97803.56;;;19.53;38.19
6094;BME280;19964;42.060;24.700;2022-10-19T08:28:50;97806.59;;;19.26;38.83
6094;BME280;19964;42.060;24.700;2022-10-19T08:31:18;97807.22;;;19.86;38.13
6094;BME280;19964;42.060;24.700;2022-10-19T08:33:47;97810.34;;;19.15;37.58
6094;BME280;19964;42.060;24.700;2022-10-19T08:36:14;97802.28;;;18.43;39.47
6094;BME280;19964;42.060;24.700;2022-10-19T08:38:41;97789.91;;;19.07;37.90
6094;BME280;19964;42.060;24.700;2022-10-19T08:41:20;97794.34;;;19.12;38.48
6094;BME280;19964;42.060;24.700;2022-10-19T08:44:10;97795.38;;;19.16;40.35
6094;BME280;19964;42.060;24.700;2022-10-19T08:46:49;97797.22;;;19.88;39.62
6094;BME280;19964;42.060;24.700;2022-10-19T08:49:23;97799.06;;;20.45;36.24
6094;BME280;19964;42.060;24.700;2022-10-19T08:51:56;97784.41;;;19.47;36.99
6094;BME280;19964;42.060;24.700;2022-10-19T08:54:29;97788.13;;;20.56;37.59
6094;BME280;19964;42.060;24.700;2022-10-19T08:57:04;97788.19;;;20.75;35.48
6094;BME280;19964;42.060;24.700;2022-10-19T08:59:39;97794.41;;;20.36;36.72
6094;BME280;19964;42.060;24.700;2022-10-19T09:02:13;97771.13;;;20.91;37.04
6094;BME280;19964;42.060;24.700;2022-10-19T09:04:46;97737.56;;;20.59;35.95
6094;BME280;19964;42.060;24.700;2022-10-19T09:07:22;97784.94;;;20.59;35.17
6094;BME280;19964;42.060;24.700;2022-10-19T09:09:55;97780.06;;;20.90;35.69
6094;BME280;19964;42.060;24.700;2022-10-19T09:12:41;97784.34;;;20.15;35.09
6094;BME280;19964;42.060;24.700;2022-10-19T09:15:12;97777.78;;;20.65;35.71
6094;BME280;19964;42.060;24.700;2022-10-19T09:17:40;97779.25;;;20.94;33.88
6094;BME280;19964;42.060;24.700;2022-10-19T09:20:17;97775.59;;;20.90;35.49
6094;BME280;19964;42.060;24.700;2022-10-19T09:22:45;97770.16;;;20.63;34.05
6094;BME280;19964;42.060;24.700;2022-10-19T09:25:14;97763.66;;;21.35;36.29
6094;BME280;19964;42.060;24.700;2022-10-19T09:27:46;97768.06;;;21.72;34.12
6094;BME280;19964;42.060;24.700;2022-10-19T09:30:17;97772.13;;;21.51;33.28
6094;BME280;19964;42.060;24.700;2022-10-19T09:32:45;97760.72;;;21.55;34.35
6094;BME280;19964;42.060;24.700;2022-10-19T09:35:23;97759.69;;;21.19;33.44
6094;BME280;19964;42.060;24.700;2022-10-19T09:37:53;97758.72;;;21.79;32.37
6094;BME280;19964;42.060;24.700;2022-10-19T09:40:21;97762.69;;;22.09;33.88
6094;BME280;19964;42.060;24.700;2022-10-19T09:42:49;97752.06;;;21.50;34.20
6094;BME280;19964;42.060;24.700;2022-10-19T09:45:33;97751.97;;;21.41;33.02
6094;BME280;19964;42.060;24.700;2022-10-19T09:48:14;97731.81;;;21.64;32.73
6094;BME280;19964;42.060;24.700;2022-10-19T09:50:44;97735.13;;;21.69;33.43
6094;BME280;19964;42.060;24.700;2022-10-19T09:53:17;97748.00;;;21.89;33.60
6094;BME280;19964;42.060;24.700;2022-10-19T09:55:56;97742.19;;;22.60;33.02
6094;BME280;19964;42.060;24.700;2022-10-19T09:58:25;97740.19;;;22.79;31.49
6094;BME280;19964;42.060;24.700;2022-10-19T10:00:53;97734.00;;;22.97;31.34
6094;BME280;19964;42.060;24.700;2022-10-19T10:03:29;97727.56;;;23.12;31.18
6094;BME280;19964;42.060;24.700;2022-10-19T10:06:01;97728.97;;;22.47;31.34
6094;BME280;19964;42.060;24.700;2022-10-19T10:08:32;97722.91;;;22.46;31.17
6094;BME280;19964;42.060;24.700;2022-10-19T10:11:05;97728.41;;;22.23;32.50
6094;BME280;19964;42.060;24.700;2022-10-19T10:13:35;97719.66;;;21.81;32.59
6094;BME280;19964;42.060;24.700;2022-10-19T10:16:05;97708.63;;;22.20;33.01
6094;BME280;19964;42.060;24.700;2022-10-19T10:18:35;97700.91;;;22.64;31.61
6094;BME280;19964;42.060;24.700;2022-10-19T10:21:11;97714.03;;;21.69;31.36
6094;BME280;19964;42.060;24.700;2022-10-19T10:23:39;97662.59;;;21.99;32.39
6094;BME280;19964;42.060;24.700;2022-10-19T10:26:15;97681.94;;;21.94;32.30
6094;BME280;19964;42.060;24.700;2022-10-19T10:28:46;97686.50;;;22.43;31.40
6094;BME280;19964;42.060;24.700;2022-10-19T10:31:18;97699.06;;;22.87;31.19
6094;BME280;19964;42.060;24.700;2022-10-19T10:33:52;97698.97;;;22.43;33.27
6094;BME280;19964;42.060;24.700;2022-10-19T10:36:22;97692.66;;;22.79;33.20
6094;BME280;19964;42.060;24.700;2022-10-19T10:38:52;97685.44;;;22.58;32.71
6094;BME280;19964;42.060;24.700;2022-10-19T10:41:23;97688.34;;;21.75;31.58
6094;BME280;19964;42.060;24.700;2022-10-19T10:43:54;97675.91;;;22.07;32.38
6094;BME280;19964;42.060;24.700;2022-10-19T10:46:25;97640.38;;;22.41;31.58
6094;BME280;19964;42.060;24.700;2022-10-19T10:48:55;97675.44;;;22.55;31.56
6094;BME280;19964;42.060;24.700;2022-10-19T10:51:31;97674.66;;;21.73;32.52
6094;BME280;19964;42.060;24.700;2022-10-19T10:54:08;97617.88;;;21.80;32.92
6094;BME280;19964;42.060;24.700;2022-10-19T10:56:40;97665.41;;;22.30;32.78
6094;BME280;19964;42.060;24.700;2022-10-19T10:59:11;97662.69;;;23.06;31.90
6094;BME280;19964;42.060;24.700;2022-10-19T11:01:43;97663.63;;;22.88;31.70
6094;BME280;19964;42.060;24.700;2022-10-19T11:04:18;97662.59;;;22.75;31.53
6094;BME280;19964;42.060;24.700;2022-10-19T11:06:53;97644.66;;;23.08;32.63
6094;BME280;19964;42.060;24.700;2022-10-19T11:09:25;97644.03;;;22.53;31.00
6094;BME280;19964;42.060;24.700;2022-10-19T11:11:55;97632.53;;;22.36;32.66
6094;BME280;19964;42.060;24.700;2022-10-19T11:14:35;97627.00;;;22.73;30.61
6094;BME280;19964;42.060;24.700;2022-10-19T11:17:05;97648.19;;;23.03;30.42
6094;BME280;19964;42.060;24.700;2022-10-19T11:19:38;97635.19;;;23.07;30.12
6094;BME280;19964;42.060;24.700;2022-10-19T11:22:15;97626.25;;;23.25;34.79
6094;BME280;19964;42.060;24.700;2022-10-19T11:24:54;97629.28;;;23.10;29.03
6094;BME280;19964;42.060;24.700;2022-10-19T11:27:34;97632.94;;;23.00;30.10
6094;BME280;19964;42.060;24.700;2022-10-19T11:30:08;97623.56;;;23.39;29.90
6094;BME280;19964;42.060;24.700;2022-10-19T11:32:45;97624.97;;;23.36;30.92
6094;BME280;19964;42.060;24.700;2022-10-19T11:35:33;97617.25;;;23.57;31.51
6094;BME280;19964;42.060;24.700;2022-10-19T11:38:17;97601.16;;;23.36;28.83
6094;BME280;19964;42.060;24.700;2022-10-19T11:40:53;97569.84;;;23.08;29.80
6094;BME280;19964;42.060;24.700;2022-10-19T11:43:30;97606.34;;;23.28;29.25
6094;BME280;19964;42.060;24.700;2022-10-19T11:46:06;97602.16;;;23.27;28.84
6094;BME280;19964;42.060;24.700;2022-10-19T11:48:43;97606.41;;;22.83;29.64
6094;BME280;19964;42.060;24.700;2022-10-19T11:51:25;97594.28;;;23.35;29.64
6094;BME280;19964;42.060;24.700;2022-10-19T11:54:05;97595.69;;;23.72;30.39
6094;BME280;19964;42.060;24.700;2022-10-19T11:56:44;97595.72;;;23.19;29.70
6094;BME280;19964;42.060;24.700;2022-10-19T11:59:18;97594.84;;;23.01;29.92
6094;BME280;19964;42.060;24.700;2022-10-19T12:01:54;97588.63;;;22.97;30.71
6094;BME280;19964;42.060;24.700;2022-10-19T12:04:48;97585.59;;;23.13;29.80
6094;BME280;19964;42.060;24.700;2022-10-19T12:07:43;97588.31;;;23.52;30.14
6094;BME280;19964;42.060;24.700;2022-10-19T12:10:20;97570.59;;;23.61;29.34
6094;BME280;19964;42.060;24.700;2022-10-19T12:12:54;97561.25;;;23.24;28.97
6094;BME280;19964;42.060;24.700;2022-10-19T12:15:27;97580.63;;;23.11;30.31
6094;BME280;19964;42.060;24.700;2022-10-19T12:17:59;97567.38;;;23.33;30.12
6094;BME280;19964;42.060;24.700;2022-10-19T12:20:31;97577.84;;;23.47;30.05
6094;BME280;19964;42.060;24.700;2022-10-19T12:23:03;97564.28;;;23.79;30.40
6094;BME280;19964;42.060;24.700;2022-10-19T12:25:34;97570.91;;;23.68;29.72
6094;BME280;19964;42.060;24.700;2022-10-19T12:28:09;97539.16;;;23.68;29.95
6094;BME280;19964;42.060;24.700;2022-10-19T12:30:43;97531.22;;;23.68;29.58
6094;BME280;19964;42.060;24.700;2022-10-19T12:33:17;97560.94;;;24.04;30.16
6094;BME280;19964;42.060;24.700;2022-10-19T12:35:59;97557.38;;;23.61;27.56
6094;BME280;19964;42.060;24.700;2022-10-19T12:38:38;97556.47;;;23.35;30.43
6094;BME280;19964;42.060;24.700;2022-10-19T12:41:18;97535.88;;;23.54;27.95
6094;BME280;19964;42.060;24.700;2022-10-19T12:43:56;97537.38;;;23.38;29.58
6094;BME280;19964;42.060;24.700;2022-10-19T12:46:31;97543.53;;;23.25;30.30
6094;BME280;19964;42.060;24.700;2022-10-19T12:49:33;97539.63;;;23.61;28.46
6094;BME280;19964;42.060;24.700;2022-10-19T12:52:00;97528.78;;;23.80;29.54
6094;BME280;19964;42.060;24.700;2022-10-19T12:54:30;97522.19;;;23.52;28.61
6094;BME280;19964;42.060;24.700;2022-10-19T12:57:01;97540.22;;;23.58;29.29
6094;BME280;19964;42.060;24.700;2022-10-19T12:59:32;97528.69;;;23.54;30.88
6094;BME280;19964;42.060;24.700;2022-10-19T13:02:03;97527.34;;;23.26;29.64
6094;BME280;19964;42.060;24.700;2022-10-19T13:04:32;97530.38;;;22.80;29.10
6094;BME280;19964;42.060;24.700;2022-10-19T13:07:03;97523.53;;;23.10;28.20
6094;BME280;19964;42.060;24.700;2022-10-19T13:09:34;97534.00;;;23.15;28.40
6094;BME280;19964;42.060;24.700;2022-10-19T13:12:38;97528.22;;;23.44;28.93
6094;BME280;19964;42.060;24.700;2022-10-19T13:18:11;97501.50;;;23.54;29.84
6094;BME280;19964;42.060;24.700;2022-10-19T13:20:50;97504.50;;;23.86;30.18
6094;BME280;19964;42.060;24.700;2022-10-19T13:23:40;97496.69;;;23.64;27.95
6094;BME280;19964;42.060;24.700;2022-10-19T13:26:28;97509.00;;;23.69;27.89